createdAt,value
2017-09-29T00:00:52.462Z,0.00
2017-09-29T00:01:52.462Z,0.00
2017-09-29T00:02:52.470Z,0.00
2017-09-29T00:03:52.463Z,0.00
2017-09-29T00:04:52.461Z,0.00
2017-09-29T00:05:52.457Z,0.00
2017-09-29T00:06:52.457Z,0.00
2017-09-29T00:07:52.458Z,0.00
2017-09-29T00:08:52.456Z,0.00
2017-09-29T00:09:52.460Z,0.00
2017-09-29T00:10:52.460Z,0.00
2017-09-29T00:11:52.464Z,0.00
2017-09-29T00:12:52.461Z,0.00
2017-09-29T00:13:52.455Z,0.00
2017-09-29T00:14:52.458Z,0.00
2017-09-29T00:15:52.456Z,0.00
2017-09-29T00:16:52.454Z,0.00
2017-09-29T00:17:52.457Z,0.00
2017-09-29T00:18:52.456Z,0.00
2017-09-29T00:19:52.456Z,0.00
2017-09-29T00:20:52.463Z,0.00
2017-09-29T00:21:52.457Z,0.00
2017-09-29T00:22:52.460Z,0.00
2017-09-29T00:23:52.459Z,0.00
2017-09-29T00:24:52.460Z,0.00
2017-09-29T00:25:52.458Z,0.00
2017-09-29T00:26:52.459Z,0.00
2017-09-29T00:27:52.459Z,0.00
2017-09-29T00:28:52.458Z,0.00
2017-09-29T00:29:52.453Z,0.00
2017-09-29T00:30:52.454Z,0.00
2017-09-29T00:31:52.454Z,0.00
2017-09-29T00:32:52.453Z,0.00
2017-09-29T00:33:52.453Z,0.00
2017-09-29T00:34:52.453Z,0.00
2017-09-29T00:35:52.453Z,0.00
2017-09-29T00:36:52.453Z,0.00
2017-09-29T00:37:52.456Z,0.00
2017-09-29T00:38:52.456Z,0.00
2017-09-29T00:39:52.457Z,0.00
2017-09-29T00:40:52.456Z,0.00
2017-09-29T00:41:52.461Z,0.00
2017-09-29T00:42:52.457Z,0.00
2017-09-29T00:43:52.455Z,0.00
2017-09-29T00:44:52.455Z,0.00
2017-09-29T00:45:52.449Z,0.00
2017-09-29T00:46:52.452Z,0.00
2017-09-29T00:47:52.451Z,0.00
2017-09-29T00:48:52.449Z,0.00
2017-09-29T00:49:52.449Z,0.00
2017-09-29T00:50:52.450Z,0.00
2017-09-29T00:51:52.449Z,0.00
2017-09-29T00:52:52.449Z,0.00
2017-09-29T00:53:52.453Z,0.00
2017-09-29T00:54:52.452Z,0.00
2017-09-29T00:55:52.453Z,0.00
2017-09-29T00:56:52.450Z,0.00
2017-09-29T00:57:52.451Z,0.00
2017-09-29T00:58:52.450Z,0.00
2017-09-29T00:59:52.451Z,0.00
2017-09-29T01:00:52.449Z,0.00
2017-09-29T01:01:52.445Z,0.00
2017-09-29T01:02:52.445Z,0.00
2017-09-29T01:03:52.445Z,0.00
2017-09-29T01:04:52.445Z,0.00
2017-09-29T01:05:52.444Z,0.00
2017-09-29T01:06:52.443Z,0.00
2017-09-29T01:07:52.442Z,0.00
2017-09-29T01:08:52.442Z,0.00
2017-09-29T01:09:52.446Z,0.00
2017-09-29T01:10:52.445Z,0.00
2017-09-29T01:11:52.446Z,0.00
2017-09-29T01:12:52.445Z,0.00
2017-09-29T01:13:52.440Z,0.00
2017-09-29T01:14:52.443Z,0.00
2017-09-29T01:15:52.439Z,0.00
2017-09-29T01:16:52.438Z,0.00
2017-09-29T01:17:52.443Z,0.00
2017-09-29T01:18:52.442Z,0.00
2017-09-29T01:19:52.442Z,0.00
2017-09-29T01:20:52.440Z,0.00
2017-09-29T01:21:52.439Z,0.00
2017-09-29T01:22:52.439Z,0.00
2017-09-29T01:23:52.439Z,0.00
2017-09-29T01:24:52.438Z,0.00
2017-09-29T01:25:52.432Z,0.00
2017-09-29T01:26:52.432Z,0.00
2017-09-29T01:27:52.433Z,0.00
2017-09-29T01:28:52.432Z,0.00
2017-09-29T01:29:52.433Z,0.00
2017-09-29T01:30:52.431Z,0.00
2017-09-29T01:31:52.429Z,0.00
2017-09-29T01:32:52.452Z,0.00
2017-09-29T01:33:52.434Z,0.00
2017-09-29T01:34:52.435Z,0.00
2017-09-29T01:35:52.433Z,0.00
2017-09-29T01:36:52.431Z,0.00
2017-09-29T01:37:52.431Z,0.00
2017-09-29T01:38:52.429Z,0.00
2017-09-29T01:39:52.429Z,0.00
2017-09-29T01:40:52.429Z,0.00
2017-09-29T01:41:52.423Z,0.00
2017-09-29T01:42:52.423Z,0.00
2017-09-29T01:43:52.423Z,0.00
2017-09-29T01:44:52.420Z,0.00
2017-09-29T01:45:52.421Z,0.00
2017-09-29T01:46:52.419Z,0.00
2017-09-29T01:47:52.419Z,0.00
2017-09-29T01:48:52.417Z,0.00
2017-09-29T01:49:52.424Z,0.00
2017-09-29T01:50:52.427Z,0.00
2017-09-29T01:51:52.419Z,0.00
2017-09-29T01:52:52.419Z,0.00
2017-09-29T01:53:52.418Z,0.00
2017-09-29T01:54:52.418Z,0.00
2017-09-29T01:55:52.422Z,0.00
2017-09-29T01:56:52.415Z,0.00
2017-09-29T01:57:52.410Z,0.00
2017-09-29T01:58:52.410Z,0.00
2017-09-29T01:59:52.413Z,0.00
2017-09-29T02:00:52.407Z,0.00
2017-09-29T02:01:52.406Z,0.00
2017-09-29T02:02:52.407Z,0.00
2017-09-29T02:03:52.407Z,0.00
2017-09-29T02:04:52.405Z,0.00
2017-09-29T02:05:52.409Z,0.00
2017-09-29T02:06:52.408Z,0.00
2017-09-29T02:07:52.407Z,0.00
2017-09-29T02:08:52.404Z,0.00
2017-09-29T02:09:52.403Z,0.00
2017-09-29T02:10:52.405Z,0.00
2017-09-29T02:11:52.404Z,0.00
2017-09-29T02:12:52.403Z,0.00
2017-09-29T02:13:52.396Z,0.00
2017-09-29T02:14:52.396Z,0.00
2017-09-29T02:15:52.395Z,0.00
2017-09-29T02:16:52.392Z,0.00
2017-09-29T02:17:52.396Z,0.00
2017-09-29T02:18:52.396Z,0.00
2017-09-29T02:19:52.395Z,0.00
2017-09-29T02:20:52.394Z,0.00
2017-09-29T02:21:52.389Z,0.00
2017-09-29T02:22:52.388Z,0.00
2017-09-29T02:23:52.387Z,0.00
2017-09-29T02:24:52.384Z,0.00
2017-09-29T02:25:52.386Z,0.00
2017-09-29T02:26:52.384Z,0.00
2017-09-29T02:27:52.382Z,0.00
2017-09-29T02:28:52.381Z,0.00
2017-09-29T02:29:52.384Z,0.00
2017-09-29T02:30:52.384Z,0.00
2017-09-29T02:31:52.384Z,0.00
2017-09-29T02:32:52.382Z,0.00
2017-09-29T02:33:52.380Z,0.00
2017-09-29T02:34:52.380Z,0.00
2017-09-29T02:35:52.380Z,0.00
2017-09-29T02:36:52.381Z,0.00
2017-09-29T02:37:52.372Z,0.00
2017-09-29T02:38:52.374Z,0.00
2017-09-29T02:39:52.372Z,0.00
2017-09-29T02:40:52.370Z,0.00
2017-09-29T02:41:52.370Z,0.00
2017-09-29T02:42:52.368Z,0.00
2017-09-29T02:43:52.368Z,0.00
2017-09-29T02:44:52.366Z,0.00
2017-09-29T02:45:52.370Z,0.00
2017-09-29T02:46:52.368Z,0.00
2017-09-29T02:47:52.368Z,0.00
2017-09-29T02:48:52.367Z,0.00
2017-09-29T02:49:52.370Z,0.00
2017-09-29T02:50:52.365Z,0.00
2017-09-29T02:51:52.365Z,0.00
2017-09-29T02:52:52.361Z,0.00
2017-09-29T02:53:52.358Z,0.00
2017-09-29T02:54:52.358Z,0.00
2017-09-29T02:55:52.356Z,0.00
2017-09-29T02:56:52.355Z,0.00
2017-09-29T02:57:52.354Z,0.00
2017-09-29T02:58:52.352Z,0.00
2017-09-29T02:59:52.352Z,0.00
2017-09-29T03:00:52.351Z,0.00
2017-09-29T03:01:52.355Z,0.00
2017-09-29T03:02:52.353Z,0.00
2017-09-29T03:03:52.352Z,0.00
2017-09-29T03:04:52.350Z,0.00
2017-09-29T03:05:52.349Z,0.00
2017-09-29T03:06:52.347Z,0.00
2017-09-29T03:07:52.346Z,0.00
2017-09-29T03:08:52.346Z,0.00
2017-09-29T03:09:52.340Z,0.00
2017-09-29T03:10:52.339Z,0.00
2017-09-29T03:11:52.338Z,0.00
2017-09-29T03:12:52.339Z,0.00
2017-09-29T03:13:52.336Z,0.00
2017-09-29T03:14:52.335Z,0.00
2017-09-29T03:15:52.334Z,0.00
2017-09-29T03:16:52.332Z,0.00
2017-09-29T03:17:52.335Z,0.00
2017-09-29T03:18:52.333Z,0.00
2017-09-29T03:19:52.334Z,0.00
2017-09-29T03:20:52.332Z,0.00
2017-09-29T03:21:52.334Z,0.00
2017-09-29T03:22:52.331Z,0.00
2017-09-29T03:23:52.330Z,0.00
2017-09-29T03:24:52.327Z,0.00
2017-09-29T03:25:52.324Z,0.00
2017-09-29T03:26:52.321Z,0.00
2017-09-29T03:27:52.325Z,0.00
2017-09-29T03:28:52.318Z,0.00
2017-09-29T03:29:52.323Z,0.00
2017-09-29T03:30:52.319Z,0.00
2017-09-29T03:31:52.316Z,0.00
2017-09-29T03:32:52.315Z,0.00
2017-09-29T03:33:52.318Z,0.00
2017-09-29T03:34:52.317Z,0.00
2017-09-29T03:35:52.320Z,0.00
2017-09-29T03:36:52.314Z,0.00
2017-09-29T03:37:52.314Z,0.00
2017-09-29T03:38:52.313Z,0.00
2017-09-29T03:39:52.311Z,0.00
2017-09-29T03:40:52.308Z,0.00
2017-09-29T03:41:52.305Z,0.00
2017-09-29T03:42:52.304Z,0.00
2017-09-29T03:43:52.305Z,0.00
2017-09-29T03:44:52.303Z,0.00
2017-09-29T03:45:52.301Z,0.00
2017-09-29T03:46:52.299Z,0.00
2017-09-29T03:47:52.298Z,0.00
2017-09-29T03:48:52.296Z,0.00
2017-09-29T03:49:52.299Z,0.00
2017-09-29T03:50:52.300Z,0.00
2017-09-29T03:51:52.298Z,0.00
2017-09-29T03:52:52.297Z,0.00
2017-09-29T03:53:52.295Z,0.00
2017-09-29T03:54:52.295Z,0.00
2017-09-29T03:55:52.295Z,0.00
2017-09-29T03:56:52.292Z,0.00
2017-09-29T03:57:52.287Z,0.00
2017-09-29T03:58:52.288Z,0.00
2017-09-29T03:59:52.286Z,0.00
2017-09-29T04:00:52.284Z,0.00
2017-09-29T04:01:52.285Z,0.00
2017-09-29T04:02:52.283Z,0.00
2017-09-29T04:03:52.283Z,0.00
2017-09-29T04:04:52.280Z,0.00
2017-09-29T04:05:52.283Z,0.00
2017-09-29T04:06:52.283Z,0.00
2017-09-29T04:07:52.284Z,0.00
2017-09-29T04:08:52.281Z,0.00
2017-09-29T04:09:52.278Z,0.00
2017-09-29T04:10:52.278Z,0.00
2017-09-29T04:11:52.278Z,0.00
2017-09-29T04:12:52.283Z,0.00
2017-09-29T04:13:52.273Z,0.00
2017-09-29T04:14:52.271Z,0.00
2017-09-29T04:15:52.273Z,0.00
2017-09-29T04:16:52.267Z,0.00
2017-09-29T04:17:52.267Z,0.00
2017-09-29T04:18:52.267Z,0.00
2017-09-29T04:19:52.266Z,0.00
2017-09-29T04:20:52.265Z,0.00
2017-09-29T04:21:52.267Z,0.00
2017-09-29T04:22:52.266Z,0.00
2017-09-29T04:23:52.264Z,0.00
2017-09-29T04:24:52.264Z,0.00
2017-09-29T04:25:52.260Z,0.00
2017-09-29T04:26:52.259Z,0.00
2017-09-29T04:27:52.258Z,0.00
2017-09-29T04:28:52.260Z,0.00
2017-09-29T04:29:52.259Z,0.00
2017-09-29T04:30:52.262Z,0.00
2017-09-29T04:31:52.258Z,0.00
2017-09-29T04:32:52.256Z,0.00
2017-09-29T04:33:52.255Z,0.00
2017-09-29T04:34:52.254Z,0.00
2017-09-29T04:35:52.256Z,0.00
2017-09-29T04:36:52.258Z,0.00
2017-09-29T04:37:52.246Z,0.00
2017-09-29T04:38:52.248Z,0.00
2017-09-29T04:39:52.246Z,0.00
2017-09-29T04:40:52.243Z,0.00
2017-09-29T04:41:52.243Z,0.00
2017-09-29T04:42:52.243Z,0.00
2017-09-29T04:43:52.241Z,0.00
2017-09-29T04:44:52.240Z,0.00
2017-09-29T04:45:52.242Z,0.00
2017-09-29T04:46:52.242Z,0.00
2017-09-29T04:47:52.242Z,0.00
2017-09-29T04:48:52.240Z,0.00
2017-09-29T04:49:52.239Z,0.00
2017-09-29T04:50:52.238Z,0.00
2017-09-29T04:51:52.239Z,0.00
2017-09-29T04:52:52.235Z,0.00
2017-09-29T04:53:52.229Z,0.00
2017-09-29T04:54:52.231Z,0.00
2017-09-29T04:55:52.228Z,0.00
2017-09-29T04:56:52.227Z,0.00
2017-09-29T04:57:52.226Z,0.00
2017-09-29T04:58:52.226Z,0.00
2017-09-29T04:59:52.226Z,0.00
2017-09-29T05:00:52.223Z,0.00
2017-09-29T05:01:52.227Z,0.00
2017-09-29T05:02:52.227Z,0.00
2017-09-29T05:03:52.226Z,0.00
2017-09-29T05:04:52.224Z,0.00
2017-09-29T05:05:52.224Z,0.00
2017-09-29T05:06:52.222Z,0.00
2017-09-29T05:07:52.221Z,0.00
2017-09-29T05:08:52.220Z,0.00
2017-09-29T05:09:52.215Z,0.00
2017-09-29T05:10:52.215Z,0.00
2017-09-29T05:11:52.213Z,0.00
2017-09-29T05:12:52.212Z,0.00
2017-09-29T05:13:52.211Z,0.00
2017-09-29T05:14:52.211Z,0.00
2017-09-29T05:15:52.211Z,0.00
2017-09-29T05:16:52.209Z,0.00
2017-09-29T05:17:52.213Z,0.00
2017-09-29T05:18:52.211Z,0.00
2017-09-29T05:19:52.211Z,0.00
2017-09-29T05:20:52.210Z,0.00
2017-09-29T05:21:52.208Z,0.00
2017-09-29T05:22:52.208Z,0.00
2017-09-29T05:23:52.207Z,0.00
2017-09-29T05:24:52.205Z,5.63
2017-09-29T05:25:52.200Z,5.63
2017-09-29T05:26:52.200Z,5.63
2017-09-29T05:27:52.199Z,5.63
2017-09-29T05:28:52.198Z,11.25
2017-09-29T05:29:52.201Z,11.25
2017-09-29T05:30:52.200Z,11.25
2017-09-29T05:31:52.198Z,11.25
2017-09-29T05:32:52.198Z,11.25
2017-09-29T05:33:52.192Z,11.25
2017-09-29T05:34:52.193Z,16.88
2017-09-29T05:35:52.193Z,16.88
2017-09-29T05:36:52.196Z,16.88
2017-09-29T05:37:52.189Z,16.88
2017-09-29T05:38:52.187Z,22.50
2017-09-29T05:39:52.188Z,22.50
2017-09-29T05:40:52.186Z,22.50
2017-09-29T05:41:52.190Z,28.13
2017-09-29T05:42:52.188Z,28.13
2017-09-29T05:43:52.192Z,28.13
2017-09-29T05:44:52.187Z,33.75
2017-09-29T05:45:52.185Z,33.75
2017-09-29T05:46:52.185Z,39.38
2017-09-29T05:47:52.191Z,39.38
2017-09-29T05:48:52.183Z,45.00
2017-09-29T05:49:52.177Z,45.00
2017-09-29T05:50:52.178Z,50.63
2017-09-29T05:51:52.177Z,56.25
2017-09-29T05:52:52.175Z,56.25
2017-09-29T05:53:52.175Z,61.88
2017-09-29T05:54:52.175Z,61.88
2017-09-29T05:55:52.173Z,61.88
2017-09-29T05:56:52.173Z,61.88
2017-09-29T05:57:52.176Z,61.88
2017-09-29T05:58:52.174Z,61.88
2017-09-29T05:59:52.175Z,61.88
2017-09-29T06:00:52.176Z,56.25
2017-09-29T06:01:52.171Z,56.25
2017-09-29T06:02:52.170Z,61.88
2017-09-29T06:03:52.171Z,61.88
2017-09-29T06:04:52.169Z,67.50
2017-09-29T06:05:52.165Z,73.13
2017-09-29T06:06:52.164Z,78.75
2017-09-29T06:07:52.163Z,84.38
2017-09-29T06:08:52.162Z,90.00
2017-09-29T06:09:52.162Z,95.63
2017-09-29T06:10:52.161Z,106.88
2017-09-29T06:11:52.160Z,112.50
2017-09-29T06:12:52.159Z,123.75
2017-09-29T06:13:52.162Z,135.00
2017-09-29T06:14:52.162Z,146.25
2017-09-29T06:15:52.167Z,157.50
2017-09-29T06:16:52.159Z,163.13
2017-09-29T06:17:52.159Z,180.00
2017-09-29T06:18:52.158Z,191.25
2017-09-29T06:19:52.158Z,213.75
2017-09-29T06:20:52.156Z,241.88
2017-09-29T06:21:52.152Z,225.00
2017-09-29T06:22:52.152Z,236.25
2017-09-29T06:23:52.152Z,247.50
2017-09-29T06:24:52.151Z,241.88
2017-09-29T06:25:52.150Z,247.50
2017-09-29T06:26:52.148Z,247.50
2017-09-29T06:27:52.149Z,241.88
2017-09-29T06:28:52.148Z,236.25
2017-09-29T06:29:52.152Z,236.25
2017-09-29T06:30:52.152Z,236.25
2017-09-29T06:31:52.151Z,236.25
2017-09-29T06:32:52.151Z,236.25
2017-09-29T06:33:52.146Z,236.25
2017-09-29T06:34:52.147Z,241.88
2017-09-29T06:35:52.146Z,241.88
2017-09-29T06:36:52.145Z,247.50
2017-09-29T06:37:52.149Z,253.13
2017-09-29T06:38:52.150Z,258.75
2017-09-29T06:39:52.149Z,264.38
2017-09-29T06:40:52.150Z,275.63
2017-09-29T06:41:52.149Z,292.50
2017-09-29T06:42:52.149Z,326.25
2017-09-29T06:43:52.150Z,388.13
2017-09-29T06:44:52.148Z,455.63
2017-09-29T06:45:52.144Z,438.75
2017-09-29T06:46:52.146Z,444.38
2017-09-29T06:47:52.145Z,399.38
2017-09-29T06:48:52.148Z,382.50
2017-09-29T06:49:52.146Z,410.63
2017-09-29T06:50:52.148Z,348.75
2017-09-29T06:51:52.148Z,326.25
2017-09-29T06:52:52.148Z,343.13
2017-09-29T06:53:52.153Z,433.13
2017-09-29T06:54:52.153Z,534.38
2017-09-29T06:55:52.157Z,416.25
2017-09-29T06:56:52.154Z,365.63
2017-09-29T06:57:52.156Z,348.75
2017-09-29T06:58:52.157Z,343.13
2017-09-29T06:59:52.157Z,360.00
2017-09-29T07:00:52.158Z,348.75
2017-09-29T07:01:52.156Z,348.75
2017-09-29T07:02:52.156Z,360.00
2017-09-29T07:03:52.158Z,376.88
2017-09-29T07:04:52.158Z,388.13
2017-09-29T07:05:52.158Z,399.38
2017-09-29T07:06:52.160Z,421.88
2017-09-29T07:07:52.162Z,472.50
2017-09-29T07:08:52.164Z,540.00
2017-09-29T07:09:52.169Z,652.50
2017-09-29T07:10:52.169Z,725.63
2017-09-29T07:11:52.171Z,765.00
2017-09-29T07:12:52.171Z,838.13
2017-09-29T07:13:52.173Z,900.00
2017-09-29T07:14:52.175Z,804.38
2017-09-29T07:15:52.176Z,1091.25
2017-09-29T07:16:52.177Z,1147.50
2017-09-29T07:17:52.175Z,1141.88
2017-09-29T07:18:52.177Z,1153.13
2017-09-29T07:19:52.180Z,1125.00
2017-09-29T07:20:52.182Z,1108.13
2017-09-29T07:21:52.185Z,1158.75
2017-09-29T07:22:52.188Z,894.38
2017-09-29T07:23:52.192Z,770.63
2017-09-29T07:24:52.194Z,742.50
2017-09-29T07:25:52.202Z,703.13
2017-09-29T07:26:52.206Z,585.00
2017-09-29T07:27:52.238Z,540.00
2017-09-29T07:28:52.214Z,781.88
2017-09-29T07:29:52.219Z,798.75
2017-09-29T07:30:52.223Z,562.50
2017-09-29T07:31:52.227Z,585.00
2017-09-29T07:32:52.229Z,601.88
2017-09-29T07:33:52.280Z,663.75
2017-09-29T07:34:52.240Z,641.25
2017-09-29T07:35:52.238Z,742.50
2017-09-29T07:36:52.243Z,731.25
2017-09-29T07:37:52.247Z,776.25
2017-09-29T07:38:52.252Z,815.63
2017-09-29T07:39:52.257Z,793.13
2017-09-29T07:40:52.261Z,770.63
2017-09-29T07:41:52.270Z,765.00
2017-09-29T07:42:52.274Z,883.13
2017-09-29T07:43:52.280Z,765.00
2017-09-29T07:44:52.284Z,928.13
2017-09-29T07:45:52.294Z,843.75
2017-09-29T07:46:52.294Z,776.25
2017-09-29T07:47:52.300Z,759.38
2017-09-29T07:48:52.305Z,838.13
2017-09-29T07:49:52.307Z,933.75
2017-09-29T07:50:52.312Z,1012.50
2017-09-29T07:51:52.317Z,1108.13
2017-09-29T07:52:52.325Z,1102.50
2017-09-29T07:53:52.330Z,1046.25
2017-09-29T07:54:52.337Z,883.13
2017-09-29T07:55:52.344Z,967.50
2017-09-29T07:56:52.353Z,1080.00
2017-09-29T07:57:52.360Z,1063.13
2017-09-29T07:58:52.368Z,1102.50
2017-09-29T07:59:52.375Z,1170.00
2017-09-29T08:00:52.380Z,1237.50
2017-09-29T08:01:52.387Z,1243.13
2017-09-29T08:02:52.397Z,1248.75
2017-09-29T08:03:52.404Z,1288.13
2017-09-29T08:04:52.413Z,1355.63
2017-09-29T08:05:52.416Z,1383.75
2017-09-29T08:06:52.424Z,1428.75
2017-09-29T08:07:52.433Z,1417.50
2017-09-29T08:08:52.441Z,1417.50
2017-09-29T08:09:52.447Z,1423.13
2017-09-29T08:10:52.455Z,1479.38
2017-09-29T08:11:52.467Z,1518.75
2017-09-29T08:12:52.475Z,1541.25
2017-09-29T08:13:52.489Z,1524.38
2017-09-29T08:14:52.498Z,1445.63
2017-09-29T08:15:52.508Z,1400.63
2017-09-29T08:16:52.517Z,1586.25
2017-09-29T08:17:52.526Z,1546.88
2017-09-29T08:18:52.537Z,1580.63
2017-09-29T08:19:52.546Z,1620.00
2017-09-29T08:20:52.558Z,1603.13
2017-09-29T08:21:52.564Z,1631.25
2017-09-29T08:22:52.573Z,1648.13
2017-09-29T08:23:52.586Z,1659.38
2017-09-29T08:24:52.596Z,1704.38
2017-09-29T08:25:52.606Z,1749.38
2017-09-29T08:26:52.618Z,1777.50
2017-09-29T08:27:52.628Z,1777.50
2017-09-29T08:28:52.640Z,1749.38
2017-09-29T08:29:52.657Z,1901.25
2017-09-29T08:30:52.668Z,1980.00
2017-09-29T08:31:52.679Z,2070.00
2017-09-29T08:32:52.694Z,2086.88
2017-09-29T08:33:52.709Z,2328.75
2017-09-29T08:34:52.719Z,2508.75
2017-09-29T08:35:52.728Z,2626.88
2017-09-29T08:36:52.739Z,2491.88
2017-09-29T08:37:52.750Z,2373.75
2017-09-29T08:38:52.761Z,2660.63
2017-09-29T08:39:52.825Z,2818.13
2017-09-29T08:40:52.857Z,2840.63
2017-09-29T08:41:52.874Z,3150.00
2017-09-29T08:42:52.956Z,3144.38
2017-09-29T08:43:52.915Z,3296.25
2017-09-29T08:44:52.912Z,3645.00
2017-09-29T08:45:52.863Z,3864.38
2017-09-29T08:46:52.893Z,4095.00
2017-09-29T08:47:52.931Z,4201.88
2017-09-29T08:48:52.939Z,4263.75
2017-09-29T08:49:53.031Z,4550.63
2017-09-29T08:50:52.972Z,4668.75
2017-09-29T08:51:52.983Z,4173.75
2017-09-29T08:52:52.937Z,4618.13
2017-09-29T08:53:52.961Z,4893.75
2017-09-29T08:54:52.971Z,4848.75
2017-09-29T08:55:52.983Z,3020.63
2017-09-29T08:56:53.097Z,4730.63
2017-09-29T08:57:53.075Z,2525.63
2017-09-29T08:58:53.033Z,4218.75
2017-09-29T08:59:53.064Z,3948.75
2017-09-29T09:00:53.138Z,3639.38
2017-09-29T09:01:53.142Z,3436.88
2017-09-29T09:02:53.197Z,3577.50
2017-09-29T09:03:53.159Z,3616.88
2017-09-29T09:04:53.137Z,3487.50
2017-09-29T09:05:53.117Z,3560.63
2017-09-29T09:06:53.156Z,3583.13
2017-09-29T09:07:53.188Z,3436.88
2017-09-29T09:08:53.219Z,3301.88
2017-09-29T09:09:53.180Z,3358.13
2017-09-29T09:10:53.204Z,3256.88
2017-09-29T09:11:53.214Z,1760.63
2017-09-29T09:12:53.226Z,3301.88
2017-09-29T09:13:53.275Z,3234.38
2017-09-29T09:14:53.295Z,2767.50
2017-09-29T09:15:53.438Z,1209.38
2017-09-29T09:16:53.306Z,1119.38
2017-09-29T09:17:53.325Z,1732.50
2017-09-29T09:18:53.320Z,3256.88
2017-09-29T09:19:53.395Z,3324.38
2017-09-29T09:20:53.419Z,3195.00
2017-09-29T09:21:53.467Z,2835.00
2017-09-29T09:22:53.444Z,2896.88
2017-09-29T09:23:53.486Z,2829.38
2017-09-29T09:24:53.398Z,2795.63
2017-09-29T09:25:53.412Z,3138.75
2017-09-29T09:26:53.429Z,3127.50
2017-09-29T09:27:53.445Z,2941.88
2017-09-29T09:28:53.457Z,3313.13
2017-09-29T09:29:53.644Z,3076.88
2017-09-29T09:30:53.515Z,3099.38
2017-09-29T09:31:53.509Z,2351.25
2017-09-29T09:32:53.633Z,2430.00
2017-09-29T09:33:53.686Z,2075.63
2017-09-29T09:34:53.639Z,1805.63
2017-09-29T09:35:53.613Z,1923.75
2017-09-29T09:36:53.656Z,1766.25
2017-09-29T09:37:53.630Z,1940.63
2017-09-29T09:38:53.661Z,1794.38
2017-09-29T09:39:53.686Z,1749.38
2017-09-29T09:40:53.744Z,1614.38
2017-09-29T09:41:53.730Z,1507.50
2017-09-29T09:42:53.651Z,2199.38
2017-09-29T09:43:53.664Z,2520.00
2017-09-29T09:44:53.687Z,3358.13
2017-09-29T09:45:53.690Z,3228.75
2017-09-29T09:46:53.704Z,1906.88
2017-09-29T09:47:53.710Z,1496.25
2017-09-29T09:48:53.722Z,1333.13
2017-09-29T09:49:53.738Z,1558.13
2017-09-29T09:50:53.750Z,2250.00
2017-09-29T09:51:53.762Z,2761.88
2017-09-29T09:52:53.802Z,2655.00
2017-09-29T09:53:53.813Z,2688.75
2017-09-29T09:54:53.797Z,2407.50
2017-09-29T09:55:53.809Z,2401.88
2017-09-29T09:56:53.820Z,2295.00
2017-09-29T09:57:53.826Z,2272.50
2017-09-29T09:58:53.840Z,2081.25
2017-09-29T09:59:53.850Z,1873.13
2017-09-29T10:00:53.861Z,1923.75
2017-09-29T10:01:53.873Z,1620.00
2017-09-29T10:02:53.885Z,1479.38
2017-09-29T10:03:53.898Z,1440.00
2017-09-29T10:04:53.908Z,1513.13
2017-09-29T10:05:53.924Z,1378.13
2017-09-29T10:06:53.937Z,1406.25
2017-09-29T10:07:53.952Z,1501.88
2017-09-29T10:08:53.960Z,1569.38
2017-09-29T10:09:53.972Z,1479.38
2017-09-29T10:10:53.983Z,1288.13
2017-09-29T10:11:53.996Z,1366.88
2017-09-29T10:12:54.005Z,1136.25
2017-09-29T10:13:54.013Z,1890.00
2017-09-29T10:14:54.024Z,2334.38
2017-09-29T10:15:54.036Z,2373.75
2017-09-29T10:16:54.046Z,2317.50
2017-09-29T10:17:54.058Z,2205.00
2017-09-29T10:18:54.068Z,1822.50
2017-09-29T10:19:54.081Z,2109.38
2017-09-29T10:20:54.089Z,2221.88
2017-09-29T10:21:54.105Z,2255.63
2017-09-29T10:22:54.118Z,2311.88
2017-09-29T10:23:54.130Z,2092.50
2017-09-29T10:24:54.141Z,1113.75
2017-09-29T10:25:54.152Z,2261.25
2017-09-29T10:26:54.177Z,2025.00
2017-09-29T10:27:54.177Z,2396.25
2017-09-29T10:28:54.188Z,973.13
2017-09-29T10:29:54.228Z,2233.13
2017-09-29T10:30:54.209Z,2041.88
2017-09-29T10:31:54.218Z,2036.25
2017-09-29T10:32:54.230Z,810.00
2017-09-29T10:33:54.244Z,781.88
2017-09-29T10:34:54.255Z,2655.00
2017-09-29T10:35:54.266Z,1631.25
2017-09-29T10:36:54.278Z,1518.75
2017-09-29T10:37:54.294Z,1001.25
2017-09-29T10:38:54.304Z,1698.75
2017-09-29T10:39:54.317Z,3802.50
2017-09-29T10:40:54.326Z,3380.63
2017-09-29T10:41:54.338Z,3515.63
2017-09-29T10:42:54.350Z,3470.63
2017-09-29T10:43:54.360Z,3515.63
2017-09-29T10:44:54.371Z,3543.75
2017-09-29T10:45:54.378Z,2002.50
2017-09-29T10:46:54.388Z,3346.88
2017-09-29T10:47:54.400Z,2643.75
2017-09-29T10:48:54.411Z,3436.88
2017-09-29T10:49:54.425Z,3043.13
2017-09-29T10:50:54.436Z,2823.75
2017-09-29T10:51:54.449Z,843.75
2017-09-29T10:52:54.459Z,1091.25
2017-09-29T10:53:54.470Z,967.50
2017-09-29T10:54:54.478Z,1248.75
2017-09-29T10:55:54.488Z,1912.50
2017-09-29T10:56:54.498Z,1569.38
2017-09-29T10:57:54.509Z,1175.63
2017-09-29T10:58:54.520Z,888.75
2017-09-29T10:59:54.529Z,753.75
2017-09-29T11:00:54.538Z,646.88
2017-09-29T11:01:54.553Z,635.63
2017-09-29T11:02:54.561Z,663.75
2017-09-29T11:03:54.572Z,776.25
2017-09-29T11:04:54.580Z,1040.63
2017-09-29T11:05:54.589Z,961.88
2017-09-29T11:06:54.597Z,888.75
2017-09-29T11:07:54.606Z,928.13
2017-09-29T11:08:54.619Z,1895.63
2017-09-29T11:09:54.619Z,1980.00
2017-09-29T11:10:54.627Z,1226.25
2017-09-29T11:11:54.635Z,1068.75
2017-09-29T11:12:54.645Z,1023.75
2017-09-29T11:13:54.650Z,984.38
2017-09-29T11:14:54.657Z,877.50
2017-09-29T11:15:54.666Z,855.00
2017-09-29T11:16:54.673Z,922.50
2017-09-29T11:17:54.683Z,1136.25
2017-09-29T11:18:54.692Z,933.75
2017-09-29T11:19:54.700Z,843.75
2017-09-29T11:20:54.707Z,804.38
2017-09-29T11:21:54.712Z,753.75
2017-09-29T11:22:54.721Z,731.25
2017-09-29T11:23:54.728Z,725.63
2017-09-29T11:24:54.734Z,770.63
2017-09-29T11:25:54.736Z,843.75
2017-09-29T11:26:54.745Z,900.00
2017-09-29T11:27:54.751Z,945.00
2017-09-29T11:28:54.757Z,1012.50
2017-09-29T11:29:54.763Z,1057.50
2017-09-29T11:30:54.770Z,1068.75
2017-09-29T11:31:54.777Z,1057.50
2017-09-29T11:32:54.783Z,1018.13
2017-09-29T11:33:54.794Z,1018.13
2017-09-29T11:34:54.807Z,984.38
2017-09-29T11:35:54.808Z,967.50
2017-09-29T11:36:54.814Z,956.25
2017-09-29T11:37:54.822Z,933.75
2017-09-29T11:38:54.827Z,894.38
2017-09-29T11:39:54.834Z,843.75
2017-09-29T11:40:54.839Z,804.38
2017-09-29T11:41:54.840Z,770.63
2017-09-29T11:42:54.847Z,725.63
2017-09-29T11:43:54.855Z,697.50
2017-09-29T11:44:54.861Z,675.00
2017-09-29T11:45:54.877Z,658.13
2017-09-29T11:46:54.873Z,652.50
2017-09-29T11:47:54.879Z,658.13
2017-09-29T11:48:54.885Z,663.75
2017-09-29T11:49:54.896Z,669.38
2017-09-29T11:50:54.902Z,669.38
2017-09-29T11:51:54.908Z,663.75
2017-09-29T11:52:54.912Z,652.50
2017-09-29T11:53:54.915Z,641.25
2017-09-29T11:54:54.922Z,635.63
2017-09-29T11:55:54.927Z,630.00
2017-09-29T11:56:54.934Z,630.00
2017-09-29T11:57:54.944Z,630.00
2017-09-29T11:58:54.950Z,618.75
2017-09-29T11:59:54.956Z,624.38
2017-09-29T12:00:54.960Z,641.25
2017-09-29T12:01:54.965Z,641.25
2017-09-29T12:02:54.972Z,624.38
2017-09-29T12:03:54.977Z,618.75
2017-09-29T12:04:54.982Z,613.13
2017-09-29T12:05:54.984Z,613.13
2017-09-29T12:06:54.990Z,618.75
2017-09-29T12:07:54.996Z,618.75
2017-09-29T12:08:54.999Z,624.38
2017-09-29T12:09:55.006Z,624.38
2017-09-29T12:10:55.011Z,624.38
2017-09-29T12:11:55.017Z,624.38
2017-09-29T12:12:55.020Z,624.38
2017-09-29T12:13:55.046Z,624.38
2017-09-29T12:14:55.038Z,618.75
2017-09-29T12:15:55.042Z,618.75
2017-09-29T12:16:55.047Z,624.38
2017-09-29T12:17:55.052Z,624.38
2017-09-29T12:18:55.057Z,624.38
2017-09-29T12:19:55.063Z,618.75
2017-09-29T12:20:55.066Z,618.75
2017-09-29T12:21:55.068Z,618.75
2017-09-29T12:22:55.074Z,618.75
2017-09-29T12:23:55.082Z,624.38
2017-09-29T12:24:55.084Z,613.13
2017-09-29T12:25:55.089Z,613.13
2017-09-29T12:26:55.094Z,613.13
2017-09-29T12:27:55.100Z,607.50
2017-09-29T12:28:55.104Z,607.50
2017-09-29T12:29:55.113Z,596.25
2017-09-29T12:30:55.120Z,590.63
2017-09-29T12:31:55.125Z,585.00
2017-09-29T12:32:55.129Z,585.00
2017-09-29T12:33:55.136Z,579.38
2017-09-29T12:34:55.140Z,573.75
2017-09-29T12:35:55.151Z,573.75
2017-09-29T12:36:55.151Z,562.50
2017-09-29T12:37:55.152Z,562.50
2017-09-29T12:38:55.157Z,562.50
2017-09-29T12:39:55.163Z,556.88
2017-09-29T12:40:55.166Z,551.25
2017-09-29T12:41:55.172Z,545.63
2017-09-29T12:42:55.178Z,545.63
2017-09-29T12:43:55.183Z,545.63
2017-09-29T12:44:55.188Z,540.00